createdAt,value
2019-02-11T15:13:12.827Z,8.29
2019-02-11T15:18:14.903Z,8.04
2019-02-11T15:23:17.390Z,7.94
2019-02-11T15:28:23.157Z,8.15
2019-02-11T15:33:25.453Z,8.07
2019-02-11T15:38:29.261Z,7.92
2019-02-11T15:43:32.814Z,7.98
2019-02-11T15:48:42.616Z,7.85
2019-02-11T15:53:39.115Z,8.27
2019-02-11T15:58:43.126Z,8.29
2019-02-11T16:03:45.530Z,8.44
2019-02-11T16:08:47.958Z,8.16
2019-02-11T16:13:50.252Z,8.05
2019-02-11T16:18:52.268Z,7.84
2019-02-11T16:23:55.672Z,7.68
2019-02-11T16:28:57.736Z,7.53
2019-02-11T16:34:05.106Z,7.61
2019-02-11T16:39:08.558Z,7.48
2019-02-11T16:44:10.685Z,7.37
2019-02-11T16:49:14.166Z,7.31
2019-02-11T16:54:16.589Z,7.15
2019-02-11T16:59:19.017Z,6.90
2019-02-11T17:04:21.687Z,6.94
2019-02-11T17:09:23.710Z,6.90
2019-02-11T17:14:26.128Z,6.60
2019-02-11T17:19:30.284Z,6.49
2019-02-11T17:24:34.790Z,6.56
2019-02-11T17:29:39.357Z,6.75
2019-02-11T17:34:41.613Z,6.47
2019-02-11T17:39:44.130Z,6.36
2019-02-11T17:44:48.802Z,6.48
2019-02-11T17:49:50.886Z,6.37
2019-02-11T17:54:53.178Z,6.29
2019-02-11T17:59:56.476Z,6.24
2019-02-11T18:05:01.344Z,6.04
2019-02-11T18:10:05.215Z,6.12
2019-02-11T18:15:07.890Z,6.17
2019-02-11T18:20:11.477Z,5.88
2019-02-11T18:25:15.259Z,5.57
2019-02-11T18:30:17.280Z,5.52
2019-02-11T18:35:19.553Z,5.70
2019-02-11T18:40:21.583Z,5.38
2019-02-11T18:45:25.331Z,5.45
2019-02-11T18:50:30.420Z,5.56
2019-02-11T18:55:41.850Z,5.56
2019-02-11T19:00:46.676Z,5.39
2019-02-11T19:05:48.770Z,5.13
2019-02-11T19:10:52.734Z,5.02
2019-02-11T19:15:55.183Z,4.89
2019-02-11T19:20:57.207Z,5.04
2019-02-11T19:25:59.226Z,5.09
2019-02-11T19:31:01.242Z,5.11
2019-02-11T19:36:04.769Z,5.06
2019-02-11T19:41:06.787Z,5.04
2019-02-11T19:46:09.031Z,4.85
2019-02-11T19:51:11.036Z,4.76
2019-02-11T19:56:13.305Z,4.73
2019-02-11T20:01:15.355Z,4.76
2019-02-11T20:06:17.704Z,4.58
2019-02-11T20:11:22.231Z,4.70
2019-02-11T20:16:26.128Z,4.64
2019-02-11T20:21:28.151Z,4.67
2019-02-11T20:26:30.365Z,4.37
2019-02-11T20:31:32.419Z,4.61
2019-02-11T20:36:34.704Z,4.60
2019-02-11T20:41:36.950Z,4.43
2019-02-11T20:46:39.410Z,4.45
2019-02-11T20:51:41.507Z,4.38
2019-02-11T20:56:43.788Z,4.26
2019-02-11T21:01:45.889Z,4.37
2019-02-11T21:06:48.326Z,4.35
2019-02-11T21:11:51.474Z,4.22
2019-02-11T21:16:53.475Z,4.35
2019-02-11T21:21:56.594Z,4.35
2019-02-11T21:26:58.646Z,4.24
2019-02-11T21:32:00.792Z,4.27
2019-02-11T21:37:02.738Z,4.17
2019-02-11T21:42:05.100Z,4.32
2019-02-11T21:47:07.368Z,4.25
2019-02-11T21:52:09.426Z,4.27
2019-02-11T21:57:13.930Z,4.21
2019-02-11T22:02:16.072Z,4.58
2019-02-11T22:07:18.233Z,4.02
2019-02-11T22:12:26.197Z,4.07
2019-02-11T22:17:28.979Z,4.18
2019-02-11T22:22:31.054Z,4.14
2019-02-11T22:27:33.069Z,4.25
2019-02-11T22:32:35.515Z,4.03
2019-02-11T22:37:37.563Z,4.16
2019-02-11T22:42:42.353Z,3.97
2019-02-11T22:47:44.715Z,3.91
2019-02-11T22:52:47.159Z,3.95
2019-02-11T22:57:52.681Z,3.75
2019-02-11T23:02:57.545Z,3.96
2019-02-11T23:08:00.138Z,3.87
2019-02-11T23:13:02.226Z,3.94
2019-02-11T23:18:05.754Z,4.06
2019-02-11T23:23:08.503Z,4.08
2019-02-11T23:28:10.728Z,4.23
2019-02-11T23:33:14.999Z,4.86
2019-02-11T23:38:17.421Z,5.01
2019-02-11T23:43:19.514Z,5.15
2019-02-11T23:48:25.408Z,4.76
2019-02-11T23:53:28.323Z,4.37
2019-02-11T23:58:30.865Z,4.03
